Parishville, New York
Current Conditions -  °F | °C
As of 8:53 AM on Wednesday 28 Jan 2015 (Local Time) from KMSS Reporting Station
Clear Clear  
Wind Chill: -6°   Ceiling: Unl
Heat Index:   Visibility: 10mi
Dew Point: -8°   Wind: 5mph
Humidity: 60%   Direction: 270°W
Pressure: 30.21"   Gusts: NA
Location:  44.63°N, 74.81°W
Report Text: KMSS 281353Z AUTO 27004KT 10SM CLR M16/M22 A3021 RMK AO2 SLP242 T11611222
Loading
Personal Weather Stations






























Interactive Weather Map New forecast layout! Learn more

10-Day Weather Forecast

Advertisements
Track Severe Weather on mobile